Terminal Aerodrome Forecast
Issued by NWS

Home | Current Version | Previous Version | Text Only | Print | Product List | Glossary On
Versions: 1 2 3 4 5 6 7 8 9 10 11 12 13 14 15 16 17 18 19 20 21 22 23 24 25 26 27 28 29 30 31 32 33 34 35
000
FTUS45 KGJT 281355 AAB
TAFEGE
TAF AMD
KEGE 281355Z 2814/2912 VRB04KT 5SM -SN SCT030 BKN035 OVC060
      TEMPO 2814/2816 3SM -SN BR BKN025 BKN035
     FM281600 VRB03KT P6SM OVC060
     FM281900 24006KT P6SM VCSH SCT045 OVC060
     FM290000 27005KT 3SM -SN BR OVC030=

USA.gov is the U.S. government's official web portal to all federal, state and local government web resources and services.